Time;durP1;ratioP1;P1;durP2;ratioP2;P2;SDS_P1;SDS_P2;PMS_P1;PMS_P2;Temp;Humidity;BMP_temperature;BMP_pressure;BME280_temperature;BME280_humidity;BME280_pressure;Samples;Min_cycle;Max_cycle;Signal;HPM_P1;HPM_P2
2021/10/11 00:00:03;;;;;;;;;;;;;;;20.48;38.61;96451.28;1045001;28;1068;-57
2021/10/11 00:00:34;;;;;;;;;;;;;;;20.47;38.78;96455.75;1044920;28;848;-54
2021/10/11 00:01:04;;;;;;;;;;;;;;;20.47;38.66;96460.22;1045146;28;773;-53
2021/10/11 00:01:35;;;;;;;;;;;;;;;20.46;38.72;96458.66;1045302;28;852;-54
2021/10/11 00:02:06;;;;;;;;;;;;;;;20.46;38.66;96459.47;1044913;28;1049;-56
2021/10/11 00:02:36;;;;;;;;;;;;;;;20.45;38.79;96452.59;1043808;28;1564;-52
2021/10/11 00:03:06;;;;;;;;;;;;;;;20.45;38.81;96451.78;1044513;28;737;-56
2021/10/11 00:03:37;;;;;;;;;;;;;;;20.45;38.66;96455.22;1044605;28;1037;-53
2021/10/11 00:04:07;;;;;;;;;;;;;;;20.45;38.91;96462.31;1045036;28;1010;-57
2021/10/11 00:04:38;;;;;;;;;;;;;;;20.45;38.66;96459.69;1044246;28;970;-57
2021/10/11 00:05:10;;;;;;;;;;;;;;;20.45;38.80;96457.84;1045047;28;1034;-57
2021/10/11 00:05:40;;;;;;;;;;;;;;;20.44;38.71;96458.91;1044919;28;824;-57
2021/10/11 00:06:10;;;;;;;;;;;;;;;20.44;38.58;96456.28;1045120;28;870;-55
2021/10/11 00:06:41;;;;;;;;;;;;;;;20.43;38.52;96459.94;1044944;28;792;-54
2021/10/11 00:07:11;;;;;;;;;;;;;;;20.43;38.76;96454.69;1045125;28;813;-55
2021/10/11 00:07:41;;;;;;;;;;;;;;;20.43;38.58;96452.06;1044794;28;776;-57
2021/10/11 00:08:12;;;;;;;;;;;;;;;20.42;38.78;96458.38;1044823;28;928;-55
2021/10/11 00:08:42;;;;;;;;;;;;;;;20.41;38.85;96459.41;1044683;28;1296;-56
2021/10/11 00:09:13;;;;;;;;;;;;;;;20.41;38.74;96462.03;1045182;28;808;-56
2021/10/11 00:09:44;;;;;;;;;;;;;;;20.41;38.61;96463.88;1044643;28;1969;-57
2021/10/11 00:10:20;;;;;;;;;;;;;;;20.40;38.67;96457.84;1044792;28;860;-55
2021/10/11 00:11:10;;;;;;;;;;;;;;;20.40;38.57;96459.69;1044996;28;1721;-56
2021/10/11 00:12:01;;;;;;;;;;;;;;;20.40;38.53;96454.41;1044963;28;1362;-57
2021/10/11 00:12:51;;;;;;;;;;;;;;;20.38;38.82;96452.00;1043381;28;1009;-56
2021/10/11 00:13:42;;;;;;;;;;;;;;;20.38;38.57;96459.91;1044980;28;1023;-56
2021/10/11 00:14:13;;;;;;;;;;;;;;;20.38;38.57;96457.28;1044781;28;836;-53
2021/10/11 00:14:59;;;;;;;;;;;;;;;20.37;38.80;96457.53;1044384;28;1084;-54
2021/10/11 00:15:49;;;;;;;;;;;;;;;20.37;38.72;96455.72;1044461;28;1222;-55
2021/10/11 00:16:39;;;;;;;;;;;;;;;20.36;38.77;96448.84;1045268;28;1212;-57
2021/10/11 00:17:29;;;;;;;;;;;;;;;20.36;38.55;96450.69;1045000;28;1269;-57
2021/10/11 00:18:20;;;;;;;;;;;;;;;20.35;38.45;96455.16;1044043;28;1013;-57
2021/10/11 00:19:10;;;;;;;;;;;;;;;20.34;38.73;96448.31;1044729;28;968;-57
2021/10/11 00:20:00;;;;;;;;;;;;;;;20.35;38.68;96447.28;1044961;28;983;-55
2021/10/11 00:20:51;;;;;;;;;;;;;;;20.34;38.52;96453.56;1044242;28;1214;-55
2021/10/11 00:21:41;;;;;;;;;;;;;;;20.33;38.56;96454.63;1044825;28;1401;-53
2021/10/11 00:22:11;;;;;;;;;;;;;;;20.32;38.71;96447.78;1044719;28;713;-55
2021/10/11 00:22:41;;;;;;;;;;;;;;;20.32;38.53;96447.00;1044800;28;768;-57
2021/10/11 00:23:12;;;;;;;;;;;;;;;20.32;38.62;96453.03;1044534;28;773;-57
2021/10/11 00:23:42;;;;;;;;;;;;;;;20.31;38.46;96448.81;1044912;28;1319;-54
2021/10/11 00:24:13;;;;;;;;;;;;;;;20.31;38.54;96446.19;1044982;28;788;-56
2021/10/11 00:24:43;;;;;;;;;;;;;;;20.31;38.54;96446.19;1044674;28;835;-56
2021/10/11 00:25:14;;;;;;;;;;;;;;;20.31;38.72;96448.03;1044700;28;741;-57
2021/10/11 00:25:44;;;;;;;;;;;;;;;20.30;38.53;96444.59;1044674;28;788;-53
2021/10/11 00:26:14;;;;;;;;;;;;;;;20.31;38.68;96450.66;1045014;28;796;-57
2021/10/11 00:26:45;;;;;;;;;;;;;;;20.30;38.44;96446.47;1044912;28;749;-57
2021/10/11 00:27:17;;;;;;;;;;;;;;;20.30;38.50;96449.84;1045196;28;785;-55
2021/10/11 00:27:47;;;;;;;;;;;;;;;20.29;38.76;96443.03;1044260;28;925;-57
2021/10/11 00:28:17;;;;;;;;;;;;;;;20.28;38.53;96433.53;1044008;28;1006;-55
2021/10/11 00:28:48;;;;;;;;;;;;;;;20.27;38.78;96443.28;1044466;28;1252;-54
2021/10/11 00:29:18;;;;;;;;;;;;;;;20.27;38.72;96442.50;1044585;28;772;-53
2021/10/11 00:29:48;;;;;;;;;;;;;;;20.27;38.72;96445.13;1044815;28;1910;-56
2021/10/11 00:30:24;;;;;;;;;;;;;;;20.27;38.79;96445.13;1044978;28;859;-54
2021/10/11 00:30:55;;;;;;;;;;;;;;;20.27;38.68;96442.50;1044951;28;1013;-55
2021/10/11 00:31:25;;;;;;;;;;;;;;;20.26;38.60;96441.69;1044956;28;780;-56
2021/10/11 00:31:55;;;;;;;;;;;;;;;20.24;38.62;96437.72;1044621;28;1057;-54
2021/10/11 00:32:26;;;;;;;;;;;;;;;20.24;38.61;96440.34;1044884;28;1022;-56
2021/10/11 00:32:56;;;;;;;;;;;;;;;20.24;38.61;96441.16;1043416;28;958;-53
2021/10/11 00:33:26;;;;;;;;;;;;;;;20.23;38.59;96438.78;1044411;28;1052;-57
2021/10/11 00:33:56;;;;;;;;;;;;;;;20.24;38.62;96445.63;1044886;28;800;-56
2021/10/11 00:34:27;;;;;;;;;;;;;;;20.23;38.66;96438.78;1044372;28;1018;-57
2021/10/11 00:34:57;;;;;;;;;;;;;;;20.23;38.67;96449.31;1044874;28;887;-57
2021/10/11 00:35:28;;;;;;;;;;;;;;;20.21;38.73;96441.69;1044918;28;734;-51
2021/10/11 00:35:58;;;;;;;;;;;;;;;20.22;38.65;96445.88;1044606;28;815;-55
2021/10/11 00:36:28;;;;;;;;;;;;;;;20.22;38.73;96443.25;1045069;28;1104;-53
2021/10/11 00:36:58;;;;;;;;;;;;;;;20.21;38.57;96446.13;1044885;28;912;-54
2021/10/11 00:37:29;;;;;;;;;;;;;;;20.22;38.72;96442.44;1045050;28;1345;-57
2021/10/11 00:38:00;;;;;;;;;;;;;;;20.21;38.63;96441.69;1044189;28;808;-55
2021/10/11 00:38:30;;;;;;;;;;;;;;;20.22;38.59;96450.34;1044572;28;1046;-57
2021/10/11 00:39:01;;;;;;;;;;;;;;;20.22;38.63;96451.16;1044897;28;1227;-54
2021/10/11 00:39:31;;;;;;;;;;;;;;;20.22;38.77;96450.34;1044525;28;686;-56
2021/10/11 00:40:02;;;;;;;;;;;;;;;20.22;38.63;96452.97;1044397;28;931;-55
2021/10/11 00:40:32;;;;;;;;;;;;;;;20.22;38.49;96452.97;1044184;28;1010;-55
2021/10/11 00:41:03;;;;;;;;;;;;;;;20.22;38.67;96452.97;1044337;28;816;-56
2021/10/11 00:41:33;;;;;;;;;;;;;;;20.23;38.59;96449.31;1045066;28;1006;-55
2021/10/11 00:42:03;;;;;;;;;;;;;;;20.22;38.67;96445.06;1044588;28;1070;-55
2021/10/11 00:42:34;;;;;;;;;;;;;;;20.21;38.63;96452.22;1044522;28;791;-55
2021/10/11 00:43:04;;;;;;;;;;;;;;;20.21;38.77;96454.03;1043989;28;1077;-54
2021/10/11 00:43:34;;;;;;;;;;;;;;;20.21;38.94;96448.78;1044450;28;1062;-54
2021/10/11 00:44:05;;;;;;;;;;;;;;;20.20;38.72;96450.59;1044573;28;990;-54
2021/10/11 00:44:36;;;;;;;;;;;;;;;20.20;38.83;96447.16;1044321;28;910;-54
2021/10/11 00:45:06;;;;;;;;;;;;;;;20.19;38.65;96449.03;1044855;28;990;-57
2021/10/11 00:45:36;;;;;;;;;;;;;;;20.19;38.68;96456.09;1044824;28;777;-53
2021/10/11 00:46:07;;;;;;;;;;;;;;;20.18;38.62;96446.59;1044753;28;994;-56
2021/10/11 00:46:37;;;;;;;;;;;;;;;20.16;38.63;96446.06;1044809;28;974;-60
2021/10/11 00:47:08;;;;;;;;;;;;;;;20.17;38.60;96445.81;1044725;28;1010;-55
2021/10/11 00:47:38;;;;;;;;;;;;;;;20.17;38.68;96448.44;1043995;28;804;-53
2021/10/11 00:48:09;;;;;;;;;;;;;;;20.17;38.58;96445.03;1044316;28;693;-55
2021/10/11 00:48:39;;;;;;;;;;;;;;;20.17;38.72;96442.41;1044283;28;1256;-54
2021/10/11 00:49:09;;;;;;;;;;;;;;;20.16;38.55;96443.44;1044770;28;998;-55
2021/10/11 00:49:40;;;;;;;;;;;;;;;20.16;38.56;96443.44;1044847;28;1979;-55
2021/10/11 00:50:10;;;;;;;;;;;;;;;20.17;38.48;96445.03;1044608;28;1368;-54
2021/10/11 00:50:40;;;;;;;;;;;;;;;20.15;38.68;96442.63;1040101;28;1242;-52
2021/10/11 00:51:12;;;;;;;;;;;;;;;20.16;38.49;96444.22;1036347;28;820;-56
2021/10/11 00:51:42;;;;;;;;;;;;;;;20.15;38.64;96437.38;1036590;28;867;-52
2021/10/11 00:52:13;;;;;;;;;;;;;;;20.14;38.49;96440.25;1040246;28;876;-53
2021/10/11 00:52:43;;;;;;;;;;;;;;;20.15;38.69;96436.59;1044164;28;840;-54
2021/10/11 00:53:14;;;;;;;;;;;;;;;20.14;38.47;96435.00;1044841;28;848;-55
2021/10/11 00:53:45;;;;;;;;;;;;;;;20.14;38.58;96429.72;1040230;28;955;-55
2021/10/11 00:54:15;;;;;;;;;;;;;;;20.13;38.68;96433.44;1043672;28;878;-56
2021/10/11 00:54:45;;;;;;;;;;;;;;;20.13;38.57;96434.19;1044526;28;697;-57
2021/10/11 00:55:16;;;;;;;;;;;;;;;20.13;38.58;96430.78;1044786;28;795;-56
2021/10/11 00:55:46;;;;;;;;;;;;;;;20.13;38.51;96430.78;1044590;28;887;-55
2021/10/11 00:56:17;;;;;;;;;;;;;;;20.13;38.51;96433.44;1044901;28;804;-55
2021/10/11 00:56:47;;;;;;;;;;;;;;;20.12;38.59;96429.19;1044889;28;843;-53
2021/10/11 00:57:18;;;;;;;;;;;;;;;20.11;38.44;96431.03;1042795;28;790;-53
2021/10/11 00:57:48;;;;;;;;;;;;;;;20.10;38.47;96426.03;1043574;28;1022;-55
2021/10/11 00:58:18;;;;;;;;;;;;;;;20.10;38.67;96428.66;1044817;28;776;-57
2021/10/11 00:58:49;;;;;;;;;;;;;;;20.09;38.58;96427.09;1044814;28;1308;-56
2021/10/11 00:59:19;;;;;;;;;;;;;;;20.09;38.51;96421.81;1044001;28;730;-57
2021/10/11 00:59:49;;;;;;;;;;;;;;;20.09;38.48;96421.81;1043814;28;721;-57
2021/10/11 01:00:20;;;;;;;;;;;;;;;20.08;38.82;96431.56;1044370;28;1063;-55
2021/10/11 01:00:50;;;;;;;;;;;;;;;20.09;38.49;96432.34;1044365;28;785;-51
2021/10/11 01:01:20;;;;;;;;;;;;;;;20.08;38.66;96428.13;1044633;28;825;-57
2021/10/11 01:01:51;;;;;;;;;;;;;;;20.08;38.60;96425.47;1044787;28;780;-56
2021/10/11 01:02:22;;;;;;;;;;;;;;;20.07;38.61;96426.56;1044371;28;1192;-56
2021/10/11 01:02:53;;;;;;;;;;;;;;;20.06;38.53;96431.00;1043743;28;835;-57
2021/10/11 01:03:23;;;;;;;;;;;;;;;20.05;38.66;96431.28;1044284;28;825;-56
2021/10/11 01:03:53;;;;;;;;;;;;;;;20.03;38.71;96426.25;1044607;28;765;-53
2021/10/11 01:04:24;;;;;;;;;;;;;;;20.02;38.79;96429.13;1043063;28;859;-56
2021/10/11 01:04:54;;;;;;;;;;;;;;;20.00;38.70;96423.34;1044324;28;805;-55
2021/10/11 01:05:25;;;;;;;;;;;;;;;19.99;38.73;96427.78;1044841;28;876;-56
2021/10/11 01:05:55;;;;;;;;;;;;;;;20.00;38.75;96423.34;1044037;28;850;-55
2021/10/11 01:06:25;;;;;;;;;;;;;;;20.00;38.60;96425.97;1044347;28;966;-57
2021/10/11 01:07:16;;;;;;;;;;;;;;;20.00;38.57;96423.34;1041992;28;1211;-56
2021/10/11 01:08:06;;;;;;;;;;;;;;;20.00;38.48;96428.59;1044462;28;860;-57
2021/10/11 01:08:49;;;;;;;;;;;;;;;19.97;38.66;96422.00;1044449;28;1307;-56
2021/10/11 01:09:29;;;;;;;;;;;;;;;20.00;38.61;96428.59;1039739;28;2219;-54
2021/10/11 01:10:19;;;;;;;;;;;;;;;20.00;38.77;96425.97;1040067;28;1141;-56
2021/10/11 01:11:10;;;;;;;;;;;;;;;19.99;38.42;96424.41;1043159;28;1571;-55
2021/10/11 01:11:50;;;;;;;;;;;;;;;20.00;38.43;96425.97;1044246;28;1338;-54
2021/10/11 01:12:21;;;;;;;;;;;;;;;19.99;38.68;96422.53;1040025;28;1315;-56
2021/10/11 01:13:11;;;;;;;;;;;;;;;19.99;38.44;96430.44;1037926;28;1096;-53
2021/10/11 01:14:01;;;;;;;;;;;;;;;19.97;38.48;96424.63;1042442;28;1354;-52
2021/10/11 01:14:51;;;;;;;;;;;;;;;19.97;38.47;96429.13;1044137;28;1169;-54
2021/10/11 01:15:42;;;;;;;;;;;;;;;19.96;38.73;96425.69;1042087;28;1064;-56
2021/10/11 01:16:17;;;;;;;;;;;;;;;19.95;38.74;96431.19;1040259;28;1545;-56
2021/10/11 01:16:48;;;;;;;;;;;;;;;19.95;38.65;96425.91;1039697;28;1388;-56
2021/10/11 01:17:19;;;;;;;;;;;;;;;19.95;38.77;96431.19;1035835;28;1455;-53
2021/10/11 01:18:10;;;;;;;;;;;;;;;19.92;38.51;96429.06;1036372;28;1072;-57
2021/10/11 01:19:00;;;;;;;;;;;;;;;19.91;38.53;96425.63;1041283;28;1301;-57
2021/10/11 01:19:36;;;;;;;;;;;;;;;19.92;38.52;96426.44;1044004;28;805;-55
2021/10/11 01:20:06;;;;;;;;;;;;;;;19.93;38.57;96422.75;1040484;28;1006;-54
2021/10/11 01:20:57;;;;;;;;;;;;;;;19.92;38.78;96421.97;1044274;28;1149;-55
2021/10/11 01:21:47;;;;;;;;;;;;;;;19.91;38.70;96425.63;1044582;28;1026;-54
2021/10/11 01:22:38;;;;;;;;;;;;;;;19.89;38.64;96422.47;1044137;28;1138;-51
2021/10/11 01:23:28;;;;;;;;;;;;;;;19.87;38.70;96421.94;1044460;28;1029;-57
2021/10/11 01:24:17;;;;;;;;;;;;;;;19.85;38.76;96420.59;1044119;28;1078;-54
2021/10/11 01:24:48;;;;;;;;;;;;;;;19.86;38.77;96433.50;1043690;28;1033;-53
2021/10/11 01:25:18;;;;;;;;;;;;;;;19.85;38.60;96426.66;1044165;28;1498;-56
2021/10/11 01:26:08;;;;;;;;;;;;;;;19.83;38.69;96427.94;1041998;28;1176;-56
2021/10/11 01:27:00;;;;;;;;;;;;;;;19.85;38.61;96428.47;1044535;28;963;-54
2021/10/11 01:27:50;;;;;;;;;;;;;;;19.84;38.56;96429.53;1044270;28;1039;-57
2021/10/11 01:28:21;;;;;;;;;;;;;;;19.82;38.67;96426.38;1044903;28;795;-56
2021/10/11 01:29:12;;;;;;;;;;;;;;;19.83;38.65;96427.94;1044269;28;1263;-53
2021/10/11 01:30:03;;;;;;;;;;;;;;;19.83;38.52;96425.31;1044735;28;980;-56
2021/10/11 01:30:53;;;;;;;;;;;;;;;19.82;38.46;96429.00;1044725;28;1437;-52
2021/10/11 01:31:24;;;;;;;;;;;;;;;19.83;38.57;96427.94;1044395;28;807;-54
2021/10/11 01:32:04;;;;;;;;;;;;;;;19.82;38.45;96432.44;1044309;28;1399;-54
2021/10/11 01:32:54;;;;;;;;;;;;;;;19.83;38.42;96428.75;1040377;28;1391;-55
2021/10/11 01:33:43;;;;;;;;;;;;;;;19.83;38.48;96433.19;1044396;28;875;-52
2021/10/11 01:34:32;;;;;;;;;;;;;;;19.84;38.67;96434.81;1043395;28;1130;-56
2021/10/11 01:35:22;;;;;;;;;;;;;;;19.84;38.52;96429.53;1041673;28;1203;-52
2021/10/11 01:36:12;;;;;;;;;;;;;;;19.85;38.46;96428.47;1042026;28;1448;-57
2021/10/11 01:36:43;;;;;;;;;;;;;;;19.83;38.37;96428.75;1044743;28;871;-52
2021/10/11 01:37:13;;;;;;;;;;;;;;;19.84;38.52;96424.28;1044757;28;777;-56
2021/10/11 01:38:04;;;;;;;;;;;;;;;19.83;38.33;96428.75;1044215;28;1116;-53
2021/10/11 01:38:55;;;;;;;;;;;;;;;19.82;38.46;96427.16;1044240;28;1400;-56
2021/10/11 01:39:26;;;;;;;;;;;;;;;19.82;38.49;96429.81;1044561;28;823;-55
2021/10/11 01:40:17;;;;;;;;;;;;;;;19.83;38.50;96427.94;1044535;28;1222;-52
2021/10/11 01:41:07;;;;;;;;;;;;;;;19.82;38.31;96429.00;1044723;28;804;-54
2021/10/11 01:41:59;;;;;;;;;;;;;;;19.81;38.54;96430.03;1044531;28;1393;-54
2021/10/11 01:42:29;;;;;;;;;;;;;;;19.82;38.42;96431.63;1044425;28;729;-56
2021/10/11 01:43:00;;;;;;;;;;;;;;;19.80;38.56;96426.63;1044158;28;922;-54
2021/10/11 01:43:50;;;;;;;;;;;;;;;19.81;38.42;96427.41;1044207;28;1155;-55
2021/10/11 01:44:40;;;;;;;;;;;;;;;19.78;38.39;96425.28;1043466;28;1060;-53
2021/10/11 01:45:26;;;;;;;;;;;;;;;19.75;38.47;96431.03;1044766;28;835;-56
2021/10/11 01:45:56;;;;;;;;;;;;;;;19.74;38.58;96429.47;1044112;28;1426;-53
2021/10/11 01:46:27;;;;;;;;;;;;;;;19.72;38.62;96432.31;1044229;28;831;-56
2021/10/11 01:47:17;;;;;;;;;;;;;;;19.71;38.69;96424.69;1044063;28;1019;-55
2021/10/11 01:48:07;;;;;;;;;;;;;;;19.71;38.58;96422.06;1044073;28;1070;-57
2021/10/11 01:48:39;;;;;;;;;;;;;;;19.70;38.56;96425.75;1044242;28;1304;-54
2021/10/11 01:49:30;;;;;;;;;;;;;;;19.68;38.74;96423.34;1041423;28;1906;-56
2021/10/11 01:50:20;;;;;;;;;;;;;;;19.70;38.58;96425.75;1041858;28;1176;-57
2021/10/11 01:50:51;;;;;;;;;;;;;;;19.69;38.51;96418.91;1044206;28;1454;-56
2021/10/11 01:51:22;;;;;;;;;;;;;;;19.68;38.59;96417.31;1044427;28;768;-55
2021/10/11 01:51:53;;;;;;;;;;;;;;;19.67;38.51;96416.53;1044291;28;848;-58
2021/10/11 01:52:24;;;;;;;;;;;;;;;19.68;38.66;96419.94;1043953;28;780;-57
2021/10/11 01:52:54;;;;;;;;;;;;;;;19.68;38.59;96420.72;1044365;28;750;-54
2021/10/11 01:53:24;;;;;;;;;;;;;;;19.68;38.74;96417.31;1044566;28;846;-56
2021/10/11 01:53:55;;;;;;;;;;;;;;;19.68;38.50;96414.69;1044406;28;1052;-52
2021/10/11 01:54:25;;;;;;;;;;;;;;;19.68;38.45;96419.94;1043809;28;994;-56
2021/10/11 01:54:55;;;;;;;;;;;;;;;19.68;38.59;96414.69;1044112;28;802;-54
2021/10/11 01:55:26;;;;;;;;;;;;;;;19.68;38.56;96419.94;1044185;28;994;-54
2021/10/11 01:55:56;;;;;;;;;;;;;;;19.68;38.43;96417.31;1044319;28;886;-54
2021/10/11 01:56:27;;;;;;;;;;;;;;;19.66;38.68;96419.41;1044552;28;823;-53
2021/10/11 01:56:57;;;;;;;;;;;;;;;19.65;38.74;96415.19;1044627;28;842;-55
2021/10/11 01:57:27;;;;;;;;;;;;;;;19.65;38.69;96412.56;1044168;28;1450;-56
2021/10/11 01:57:58;;;;;;;;;;;;;;;19.65;38.26;96410.72;1043791;28;1025;-56
2021/10/11 01:58:28;;;;;;;;;;;;;;;19.65;38.82;96413.34;1044023;28;1014;-55
2021/10/11 01:58:59;;;;;;;;;;;;;;;19.64;38.69;96411.75;1044394;28;1158;-55
2021/10/11 01:59:29;;;;;;;;;;;;;;;19.64;38.63;96418.88;1044661;28;997;-55
2021/10/11 01:59:59;;;;;;;;;;;;;;;19.63;38.48;96417.28;1044393;28;772;-54
2021/10/11 02:00:30;;;;;;;;;;;;;;;19.62;38.71;96413.06;1044006;28;1446;-57
2021/10/11 02:01:00;;;;;;;;;;;;;;;19.62;38.58;96415.69;1044342;28;875;-50
2021/10/11 02:01:30;;;;;;;;;;;;;;;19.63;38.68;96412.00;1044404;28;824;-57
2021/10/11 02:02:03;;;;;;;;;;;;;;;19.63;38.62;96410.19;1044042;28;839;-55
2021/10/11 02:02:34;;;;;;;;;;;;;;;19.63;38.41;96417.28;1043382;28;1081;-55
2021/10/11 02:03:07;;;;;;;;;;;;;;;19.62;38.48;96411.22;1043661;28;1048;-56
2021/10/11 02:03:37;;;;;;;;;;;;;;;19.61;38.62;96412.28;1044389;28;1020;-53
2021/10/11 02:04:07;;;;;;;;;;;;;;;19.61;38.57;96416.72;1044406;28;528;-56
2021/10/11 02:04:37;;;;;;;;;;;;;;;19.60;38.43;96413.28;1043623;28;792;-55
2021/10/11 02:05:08;;;;;;;;;;;;;;;19.60;38.55;96415.16;1044539;28;1037;-56
2021/10/11 02:05:38;;;;;;;;;;;;;;;19.59;38.49;96414.34;1044481;28;780;-57
2021/10/11 02:06:09;;;;;;;;;;;;;;;19.61;38.62;96416.72;1044655;28;1072;-53
2021/10/11 02:06:39;;;;;;;;;;;;;;;19.61;38.60;96416.72;1044552;28;950;-53
2021/10/11 02:07:09;;;;;;;;;;;;;;;19.61;38.55;96414.09;1044621;28;1034;-54
2021/10/11 02:07:40;;;;;;;;;;;;;;;19.61;38.58;96411.47;1044216;28;792;-56
2021/10/11 02:08:10;;;;;;;;;;;;;;;19.62;38.37;96413.06;1044699;28;812;-53
2021/10/11 02:08:40;;;;;;;;;;;;;;;19.62;38.51;96405.19;1044399;28;1159;-55
2021/10/11 02:09:11;;;;;;;;;;;;;;;19.60;38.43;96402.78;1043967;28;1402;-54
2021/10/11 02:09:41;;;;;;;;;;;;;;;19.61;38.43;96408.84;1043944;28;1905;-55
2021/10/11 02:10:11;;;;;;;;;;;;;;;19.61;38.60;96414.91;1044287;28;793;-54
2021/10/11 02:10:42;;;;;;;;;;;;;;;19.61;38.45;96408.84;1044016;28;1374;-54
2021/10/11 02:11:12;;;;;;;;;;;;;;;19.61;38.39;96414.09;1039908;28;1614;-57
2021/10/11 02:11:42;;;;;;;;;;;;;;;19.61;38.55;96414.91;1038971;28;849;-54
2021/10/11 02:12:13;;;;;;;;;;;;;;;19.60;38.55;96415.16;1040032;28;893;-56
2021/10/11 02:12:43;;;;;;;;;;;;;;;19.59;38.62;96417.00;1039806;28;1447;-50
2021/10/11 02:13:13;;;;;;;;;;;;;;;19.60;38.57;96420.41;1044019;28;773;-51
2021/10/11 02:13:44;;;;;;;;;;;;;;;19.58;38.51;96417.25;1044304;28;836;-56
2021/10/11 02:14:18;;;;;;;;;;;;;;;19.59;38.57;96421.44;1044021;28;764;-54
2021/10/11 02:14:49;;;;;;;;;;;;;;;19.60;38.43;96420.41;1043999;28;738;-53
2021/10/11 02:15:19;;;;;;;;;;;;;;;19.60;38.53;96420.41;1044495;28;1251;-53
2021/10/11 02:15:49;;;;;;;;;;;;;;;19.60;38.57;96415.16;1044482;28;986;-55
2021/10/11 02:16:20;;;;;;;;;;;;;;;19.59;38.65;96416.19;1044637;28;1005;-51
2021/10/11 02:16:50;;;;;;;;;;;;;;;19.59;38.53;96416.19;1044707;28;1052;-56
2021/10/11 02:17:20;;;;;;;;;;;;;;;19.59;38.51;96416.19;1044308;28;1006;-54
2021/10/11 02:17:51;;;;;;;;;;;;;;;19.58;38.39;96415.38;1043499;28;868;-53
2021/10/11 02:18:21;;;;;;;;;;;;;;;19.58;38.50;96415.38;1044610;28;828;-53
2021/10/11 02:18:52;;;;;;;;;;;;;;;19.56;38.57;96411.44;1044581;28;1201;-55
2021/10/11 02:19:22;;;;;;;;;;;;;;;19.58;38.58;96422.50;1044577;28;847;-54
2021/10/11 02:19:52;;;;;;;;;;;;;;;19.57;38.30;96416.44;1044157;28;907;-57
2021/10/11 02:20:23;;;;;;;;;;;;;;;19.57;38.48;96418.28;1044663;28;990;-54
2021/10/11 02:20:53;;;;;;;;;;;;;;;19.56;38.60;96414.06;1044469;28;1050;-57
2021/10/11 02:21:24;;;;;;;;;;;;;;;19.57;38.55;96415.66;1044089;28;796;-57
2021/10/11 02:21:54;;;;;;;;;;;;;;;19.57;38.50;96418.28;1040010;28;1439;-55
2021/10/11 02:22:24;;;;;;;;;;;;;;;19.57;38.34;96419.06;1039820;28;1058;-56
2021/10/11 02:22:55;;;;;;;;;;;;;;;19.58;38.20;96412.00;1039968;28;1014;-51
2021/10/11 02:23:26;;;;;;;;;;;;;;;19.57;38.49;96420.91;1039718;28;861;-56
2021/10/11 02:23:56;;;;;;;;;;;;;;;19.57;38.28;96416.44;1044111;28;812;-52
2021/10/11 02:24:27;;;;;;;;;;;;;;;19.57;38.47;96423.53;1043920;28;1054;-56
2021/10/11 02:24:57;;;;;;;;;;;;;;;19.56;38.28;96416.69;1043802;28;1077;-57
2021/10/11 02:25:27;;;;;;;;;;;;;;;19.55;38.49;96423.78;1043320;28;760;-57
2021/10/11 02:25:58;;;;;;;;;;;;;;;19.54;38.28;96418.78;1044640;28;729;-57
2021/10/11 02:26:28;;;;;;;;;;;;;;;19.55;38.36;96430.88;1044693;28;931;-57
2021/10/11 02:26:58;;;;;;;;;;;;;;;19.56;38.22;96421.97;1044432;28;1061;-57
2021/10/11 02:27:29;;;;;;;;;;;;;;;19.55;38.42;96423.78;1044384;28;1018;-57
2021/10/11 02:27:59;;;;;;;;;;;;;;;19.57;38.29;96423.53;1044281;28;777;-55
2021/10/11 02:28:29;;;;;;;;;;;;;;;19.56;38.50;96422.72;1044679;28;1006;-55
2021/10/11 02:28:59;;;;;;;;;;;;;;;19.56;38.30;96430.63;1044455;28;1272;-56
2021/10/11 02:29:30;;;;;;;;;;;;;;;19.57;38.45;96428.78;1044335;28;1981;-53
2021/10/11 02:30:00;;;;;;;;;;;;;;;19.55;38.37;96426.44;1043846;28;1011;-56
2021/10/11 02:30:31;;;;;;;;;;;;;;;19.56;38.51;96427.22;1039853;28;1370;-54
2021/10/11 02:31:01;;;;;;;;;;;;;;;19.55;38.36;96428.25;1040249;28;891;-53
2021/10/11 02:31:31;;;;;;;;;;;;;;;19.55;38.32;96428.25;1040158;28;772;-57
2021/10/11 02:32:02;;;;;;;;;;;;;;;19.54;38.44;96431.94;1044048;28;863;-53
2021/10/11 02:32:32;;;;;;;;;;;;;;;19.54;38.39;96429.31;1043852;28;824;-55
2021/10/11 02:33:03;;;;;;;;;;;;;;;19.54;38.50;96430.09;1043713;28;824;-54
2021/10/11 02:33:33;;;;;;;;;;;;;;;19.54;38.17;96429.31;1043995;28;765;-55
2021/10/11 02:34:03;;;;;;;;;;;;;;;19.53;38.18;96427.72;1043936;28;1058;-54
2021/10/11 02:34:33;;;;;;;;;;;;;;;19.53;38.29;96432.97;1043728;28;808;-54
2021/10/11 02:35:04;;;;;;;;;;;;;;;19.54;38.46;96429.31;1042265;28;861;-55
2021/10/11 02:35:35;;;;;;;;;;;;;;;19.54;38.46;96429.31;1044438;28;796;-56
2021/10/11 02:36:05;;;;;;;;;;;;;;;19.54;38.24;96434.56;1044081;28;1062;-55
2021/10/11 02:36:35;;;;;;;;;;;;;;;19.54;38.17;96426.69;1040027;28;1467;-54
2021/10/11 02:37:06;;;;;;;;;;;;;;;19.52;38.26;96426.91;1038865;28;1030;-55
2021/10/11 02:37:36;;;;;;;;;;;;;;;19.52;38.18;96428.75;1039505;28;1018;-54
2021/10/11 02:38:06;;;;;;;;;;;;;;;19.52;38.20;96431.38;1039747;28;816;-55
2021/10/11 02:38:37;;;;;;;;;;;;;;;19.52;38.18;96426.09;1044687;28;773;-54
2021/10/11 02:39:07;;;;;;;;;;;;;;;19.51;38.28;96427.16;1044411;28;1217;-54
2021/10/11 02:39:37;;;;;;;;;;;;;;;19.51;38.24;96425.34;1044656;28;1053;-57
2021/10/11 02:40:08;;;;;;;;;;;;;;;19.49;38.21;96425.56;1044483;28;776;-56
2021/10/11 02:40:39;;;;;;;;;;;;;;;19.49;38.30;96422.94;1044512;28;714;-57
2021/10/11 02:41:09;;;;;;;;;;;;;;;19.49;38.25;96422.16;1044700;28;989;-52
2021/10/11 02:41:40;;;;;;;;;;;;;;;19.51;38.39;96430.59;1044514;28;927;-56
2021/10/11 02:42:10;;;;;;;;;;;;;;;19.49;38.24;96420.31;1043719;28;724;-53
2021/10/11 02:42:41;;;;;;;;;;;;;;;19.48;38.18;96426.63;1044383;28;800;-56
2021/10/11 02:43:11;;;;;;;;;;;;;;;19.49;38.38;96422.94;1044706;28;848;-54
2021/10/11 02:43:41;;;;;;;;;;;;;;;19.49;38.09;96424.78;1044491;28;1065;-57
2021/10/11 02:44:12;;;;;;;;;;;;;;;19.51;38.15;96435.06;1044189;28;761;-54
2021/10/11 02:44:42;;;;;;;;;;;;;;;19.49;38.26;96424.78;1043716;28;859;-55
2021/10/11 02:45:12;;;;;;;;;;;;;;;19.49;38.17;96422.16;1044570;28;781;-52
2021/10/11 02:45:43;;;;;;;;;;;;;;;19.49;38.25;96425.56;1044464;28;797;-53
2021/10/11 02:46:13;;;;;;;;;;;;;;;19.48;38.27;96424.00;1044046;28;806;-55
2021/10/11 02:46:44;;;;;;;;;;;;;;;19.48;38.11;96426.63;1044607;28;820;-54
2021/10/11 02:47:14;;;;;;;;;;;;;;;19.48;38.12;96425.81;1044211;28;777;-55
2021/10/11 02:47:44;;;;;;;;;;;;;;;19.49;38.26;96428.19;1043347;28;792;-54
2021/10/11 02:48:15;;;;;;;;;;;;;;;19.47;38.26;96425.03;1044364;28;773;-57
2021/10/11 02:48:45;;;;;;;;;;;;;;;19.46;38.25;96427.91;1044415;28;1240;-58
2021/10/11 02:49:15;;;;;;;;;;;;;;;19.45;38.28;96424.47;1044486;28;1061;-53
2021/10/11 02:49:45;;;;;;;;;;;;;;;19.44;38.33;96425.53;1044522;28;1946;-55
2021/10/11 02:50:16;;;;;;;;;;;;;;;19.44;38.32;96425.53;1044437;28;737;-53
2021/10/11 02:50:46;;;;;;;;;;;;;;;19.44;38.29;96419.47;1044401;28;1010;-54
2021/10/11 02:51:17;;;;;;;;;;;;;;;19.45;38.36;96421.84;1044581;28;997;-57
2021/10/11 02:51:47;;;;;;;;;;;;;;;19.44;38.29;96422.09;1044478;28;763;-57
2021/10/11 02:52:17;;;;;;;;;;;;;;;19.42;38.48;96425.00;1043858;28;1010;-57
2021/10/11 02:52:48;;;;;;;;;;;;;;;19.43;38.43;96423.94;1044203;28;788;-57
2021/10/11 02:53:18;;;;;;;;;;;;;;;19.44;38.34;96425.53;1044616;28;954;-56
2021/10/11 02:53:51;;;;;;;;;;;;;;;19.42;38.41;96425.00;1044224;28;898;-54
2021/10/11 02:54:21;;;;;;;;;;;;;;;19.42;38.37;96421.56;1043608;28;1337;-56
2021/10/11 02:54:52;;;;;;;;;;;;;;;19.41;38.22;96423.41;1044062;28;829;-57
2021/10/11 02:55:22;;;;;;;;;;;;;;;19.42;38.21;96422.38;1044201;28;825;-57
2021/10/11 02:55:53;;;;;;;;;;;;;;;19.42;38.27;96417.09;1044097;28;931;-56
2021/10/11 02:56:23;;;;;;;;;;;;;;;19.41;38.22;96415.50;1044752;28;807;-55
2021/10/11 02:56:53;;;;;;;;;;;;;;;19.41;38.30;96420.00;1044367;28;966;-58
2021/10/11 02:57:23;;;;;;;;;;;;;;;19.42;38.21;96422.38;1043464;28;1330;-55
2021/10/11 02:57:54;;;;;;;;;;;;;;;19.42;38.02;96421.56;1043988;28;803;-53
2021/10/11 02:58:24;;;;;;;;;;;;;;;19.42;38.04;96416.31;1044315;28;1065;-56
2021/10/11 02:58:55;;;;;;;;;;;;;;;19.42;38.19;96417.09;1044121;28;1316;-55
2021/10/11 02:59:25;;;;;;;;;;;;;;;19.40;38.19;96411.31;1044594;28;780;-55